createdAt,value
2022-12-23T00:01:23.091Z,99855.81
2022-12-23T00:03:50.717Z,99859.28
2022-12-23T00:06:18.834Z,99854.16
2022-12-23T00:08:46.636Z,99847.66
2022-12-23T00:11:16.533Z,99853.00
2022-12-23T00:14:01.878Z,99847.81
2022-12-23T00:16:29.453Z,99841.66
2022-12-23T00:18:56.937Z,99834.34
2022-12-23T00:21:24.342Z,99837.97
2022-12-23T00:23:51.956Z,99833.66
2022-12-23T00:26:22.297Z,99827.50
2022-12-23T00:28:49.693Z,99817.84
2022-12-23T00:31:18.578Z,99815.19
2022-12-23T00:33:48.358Z,99812.50
2022-12-23T00:36:17.925Z,99810.69
2022-12-23T00:39:03.216Z,99801.69
2022-12-23T00:41:49.787Z,99813.34
2022-12-23T00:44:17.232Z,99805.50
2022-12-23T00:46:44.647Z,99801.03
2022-12-23T00:49:30.296Z,99802.69
2022-12-23T00:51:57.707Z,99800.19
2022-12-23T00:54:25.262Z,99797.34
2022-12-23T00:56:53.970Z,99791.19
2022-12-23T00:59:21.409Z,99802.69
2022-12-23T01:02:06.846Z,99793.88
2022-12-23T01:04:52.288Z,99801.03
2022-12-23T01:07:19.671Z,99797.69
2022-12-23T01:09:47.151Z,99805.50
2022-12-23T01:12:15.843Z,99801.84
2022-12-23T01:14:43.227Z,99800.19
2022-12-23T01:17:10.736Z,99801.84
2022-12-23T01:19:38.387Z,99798.84
2022-12-23T01:22:05.834Z,99786.03
2022-12-23T01:24:33.577Z,99784.72
2022-12-23T01:27:01.230Z,99787.22
2022-12-23T01:29:29.942Z,99789.88
2022-12-23T01:31:57.453Z,99789.69
2022-12-23T01:34:26.004Z,99782.38
2022-12-23T01:36:55.915Z,99786.03
2022-12-23T01:39:23.314Z,99785.38
2022-12-23T01:42:08.321Z,99784.53
2022-12-23T01:44:56.846Z,99782.72
2022-12-23T01:47:29.701Z,99772.72
2022-12-23T01:49:58.408Z,99774.53
2022-12-23T01:52:25.846Z,99768.38
2022-12-23T01:54:53.246Z,99771.38
2022-12-23T01:57:20.685Z,99769.53
2022-12-23T02:00:05.687Z,99772.34
2022-12-23T02:02:52.854Z,99764.03
2022-12-23T02:05:20.406Z,99767.38
2022-12-23T02:08:05.371Z,99762.53
2022-12-23T02:10:36.656Z,99761.72
2022-12-23T02:13:06.020Z,99753.72
2022-12-23T02:16:04.454Z,99752.41
2022-12-23T02:18:42.647Z,99752.41
2022-12-23T02:21:19.450Z,99746.06
2022-12-23T02:24:16.848Z,99746.72
2022-12-23T02:27:11.893Z,99743.22
2022-12-23T02:30:05.313Z,99729.41
2022-12-23T02:32:39.723Z,99734.75
2022-12-23T02:35:11.231Z,99718.75
2022-12-23T02:37:41.549Z,99729.91
2022-12-23T02:40:10.993Z,99727.09
2022-12-23T02:42:39.678Z,99716.59
2022-12-23T02:45:09.184Z,99720.94
2022-12-23T02:47:40.426Z,99715.78
2022-12-23T02:50:10.976Z,99714.09
2022-12-23T02:52:38.698Z,99706.94
2022-12-23T02:55:07.549Z,99713.09
2022-12-23T02:57:36.779Z,99706.09
2022-12-23T03:00:04.707Z,99709.78
2022-12-23T03:02:32.343Z,99702.94
2022-12-23T03:05:01.361Z,99700.13
2022-12-23T03:07:31.752Z,99697.44
2022-12-23T03:10:01.316Z,99687.44
2022-12-23T03:12:33.721Z,99698.09
2022-12-23T03:15:12.307Z,99690.78
2022-12-23T03:17:47.762Z,99693.81
2022-12-23T03:20:21.044Z,99692.13
2022-12-23T03:22:50.477Z,99697.44
2022-12-23T03:25:19.989Z,99682.28
2022-12-23T03:27:49.301Z,99681.13
2022-12-23T03:30:17.733Z,99675.00
2022-12-23T03:32:46.918Z,99679.63
2022-12-23T03:35:16.896Z,99674.47
2022-12-23T03:37:45.983Z,99670.16
2022-12-23T03:40:15.956Z,99675.31
2022-12-23T03:42:43.353Z,99678.81
2022-12-23T03:45:38.062Z,99675.16
2022-12-23T03:48:01.621Z,99660.16
2022-12-23T03:50:30.299Z,99662.81
2022-12-23T03:52:59.185Z,99655.00
2022-12-23T03:55:31.525Z,99662.16
2022-12-23T03:58:01.604Z,99662.16
2022-12-23T04:00:29.732Z,99661.34
2022-12-23T04:02:59.217Z,99661.34
2022-12-23T04:05:27.967Z,99654.84
2022-12-23T04:07:59.493Z,99658.47
2022-12-23T04:10:26.900Z,99655.16
2022-12-23T04:12:54.370Z,99645.69
2022-12-23T04:15:22.106Z,99644.84
2022-12-23T04:17:49.858Z,99647.31
2022-12-23T04:20:17.484Z,99647.16
2022-12-23T04:22:44.924Z,99639.19
2022-12-23T04:25:14.088Z,99642.50
2022-12-23T04:27:41.863Z,99643.19
2022-12-23T04:30:10.314Z,99634.19
2022-12-23T04:32:37.821Z,99635.53
2022-12-23T04:35:05.888Z,99626.88
2022-12-23T04:37:33.303Z,99624.38
2022-12-23T04:40:00.697Z,99640.19
2022-12-23T04:42:29.393Z,99639.19
2022-12-23T04:44:56.786Z,99634.38
2022-12-23T04:47:24.225Z,99621.53
2022-12-23T04:49:51.647Z,99618.72
2022-12-23T04:52:19.107Z,99622.22
2022-12-23T04:54:46.755Z,99628.53
2022-12-23T04:57:14.325Z,99624.03
2022-12-23T04:59:43.020Z,99625.84
2022-12-23T05:02:10.535Z,99624.88
2022-12-23T05:04:38.188Z,99630.19
2022-12-23T05:07:05.592Z,99630.53
2022-12-23T05:09:33.010Z,99620.69
2022-12-23T05:12:00.456Z,99631.19
2022-12-23T05:14:27.891Z,99638.19
2022-12-23T05:16:59.536Z,99633.03
2022-12-23T05:19:29.650Z,99632.19
2022-12-23T05:21:57.056Z,99638.19
2022-12-23T05:24:24.481Z,99632.03
2022-12-23T05:26:59.265Z,99634.69
2022-12-23T05:29:27.379Z,99633.03
2022-12-23T05:31:56.159Z,99636.34
2022-12-23T05:34:23.654Z,99631.19
2022-12-23T05:36:51.075Z,99635.53
2022-12-23T05:39:18.494Z,99635.69
2022-12-23T05:41:46.628Z,99640.03
2022-12-23T05:44:14.059Z,99636.69
2022-12-23T05:46:41.532Z,99634.00
2022-12-23T05:49:10.271Z,99630.19
2022-12-23T05:51:37.667Z,99634.69
2022-12-23T05:54:05.129Z,99636.84
2022-12-23T05:56:32.535Z,99633.34
2022-12-23T05:59:00.222Z,99637.53
2022-12-23T06:01:27.688Z,99631.50
2022-12-23T06:03:55.252Z,99635.34
2022-12-23T06:06:24.073Z,99639.50
2022-12-23T06:08:55.877Z,99639.50
2022-12-23T06:11:26.919Z,99634.88
2022-12-23T06:13:54.339Z,99641.00
2022-12-23T06:16:21.786Z,99641.19
2022-12-23T06:18:49.312Z,99644.00
2022-12-23T06:21:16.747Z,99637.03
2022-12-23T06:23:45.445Z,99643.19
2022-12-23T06:26:12.857Z,99649.00
2022-12-23T06:28:40.255Z,99650.84
2022-12-23T06:31:07.686Z,99659.81
2022-12-23T06:33:35.100Z,99665.81
2022-12-23T06:36:02.534Z,99659.66
2022-12-23T06:38:29.963Z,99665.81
2022-12-23T06:40:58.654Z,99667.31
2022-12-23T06:43:26.063Z,99671.78
2022-12-23T06:45:53.492Z,99670.81
2022-12-23T06:48:21.114Z,99674.63
2022-12-23T06:50:48.620Z,99682.47
2022-12-23T06:53:16.079Z,99687.78
2022-12-23T06:55:43.523Z,99687.78
2022-12-23T06:58:12.274Z,99690.63
2022-12-23T07:00:39.689Z,99694.47
2022-12-23T07:03:07.801Z,99694.13
2022-12-23T07:05:37.561Z,99703.78
2022-12-23T07:08:05.640Z,99711.75
2022-12-23T07:10:33.061Z,99707.94
2022-12-23T07:13:00.539Z,99709.94
2022-12-23T07:15:29.370Z,99720.78
2022-12-23T07:17:56.934Z,99725.09
2022-12-23T07:20:24.347Z,99724.25
2022-12-23T07:22:51.786Z,99719.44
2022-12-23T07:25:19.235Z,99725.94
2022-12-23T07:27:46.687Z,99727.75
2022-12-23T07:30:14.233Z,99734.75
2022-12-23T07:32:42.962Z,99738.09
2022-12-23T07:35:10.694Z,99728.41
2022-12-23T07:37:38.107Z,99735.75
2022-12-23T07:40:08.850Z,99737.41
2022-12-23T07:42:46.165Z,99734.28
2022-12-23T07:45:14.412Z,99741.56
2022-12-23T07:47:43.154Z,99744.41
2022-12-23T07:50:10.896Z,99744.06
2022-12-23T07:52:38.322Z,99749.41
2022-12-23T07:55:06.562Z,99746.56
2022-12-23T07:57:37.621Z,99748.09
2022-12-23T08:00:28.255Z,99741.75
2022-12-23T08:02:58.252Z,99743.91
2022-12-23T08:05:26.121Z,99753.56
2022-12-23T08:07:53.597Z,99746.25
2022-12-23T08:10:21.009Z,99754.72
2022-12-23T08:12:48.493Z,99752.91
2022-12-23T08:15:15.933Z,99761.56
2022-12-23T08:17:43.378Z,99762.72
2022-12-23T08:20:12.628Z,99763.56
2022-12-23T08:22:40.039Z,99771.22
2022-12-23T08:25:08.169Z,99766.75
2022-12-23T08:27:35.716Z,99767.88
2022-12-23T08:30:03.235Z,99774.03
2022-12-23T08:32:30.824Z,99765.91
2022-12-23T08:34:58.321Z,99771.06
2022-12-23T08:37:27.043Z,99770.41
2022-12-23T08:39:54.458Z,99774.72
2022-12-23T08:42:21.941Z,99775.38
2022-12-23T08:44:49.404Z,99784.34
2022-12-23T08:47:16.806Z,99777.38
2022-12-23T08:49:44.211Z,99784.34
2022-12-23T08:52:11.658Z,99781.19
2022-12-23T08:54:40.387Z,99786.00
2022-12-23T08:57:07.811Z,99801.69
2022-12-23T08:59:35.225Z,99793.03
2022-12-23T09:02:03.489Z,99800.84
2022-12-23T09:04:31.168Z,99790.34
2022-12-23T09:06:58.621Z,99787.19
2022-12-23T09:09:26.063Z,99813.66
2022-12-23T09:11:54.866Z,99816.34
2022-12-23T09:14:22.421Z,99811.00
2022-12-23T09:16:51.079Z,99807.31
2022-12-23T09:19:18.629Z,99808.34
2022-12-23T09:21:46.166Z,99810.16
2022-12-23T09:24:13.673Z,99804.16
2022-12-23T09:26:41.096Z,99819.66
2022-12-23T09:29:09.919Z,99833.13
2022-12-23T09:31:38.172Z,99837.81
2022-12-23T09:34:06.001Z,99845.78
2022-12-23T09:36:33.654Z,99845.78
2022-12-23T09:39:01.152Z,99853.94
2022-12-23T09:41:42.739Z,99861.78
2022-12-23T09:44:23.083Z,99864.94
2022-12-23T09:46:51.926Z,99870.59
2022-12-23T09:49:19.397Z,99877.59
2022-12-23T09:51:46.883Z,99873.09
2022-12-23T09:54:17.455Z,99878.06
2022-12-23T09:56:48.429Z,99868.91
2022-12-23T09:59:23.735Z,99878.59
2022-12-23T10:01:55.208Z,99877.91
2022-12-23T10:04:40.592Z,99883.25
2022-12-23T10:07:16.062Z,99894.56
2022-12-23T10:09:43.791Z,99901.56
2022-12-23T10:12:15.168Z,99901.56
2022-12-23T10:14:44.016Z,99896.25
2022-12-23T10:17:13.298Z,99882.41
2022-12-23T10:19:42.665Z,99884.88
2022-12-23T10:22:12.924Z,99888.56
2022-12-23T10:24:41.250Z,99887.03
2022-12-23T10:27:16.274Z,99886.22
2022-12-23T10:29:44.982Z,99899.38
2022-12-23T10:32:15.934Z,99894.06
2022-12-23T10:34:46.058Z,99894.22
2022-12-23T10:37:15.923Z,99893.38
2022-12-23T10:39:45.698Z,99900.38
2022-12-23T10:42:18.097Z,99891.53
2022-12-23T10:45:00.367Z,99891.53
2022-12-23T10:47:32.526Z,99892.38
2022-12-23T10:50:07.880Z,99884.53
2022-12-23T10:52:36.445Z,99885.09
2022-12-23T10:55:05.255Z,99877.91
2022-12-23T10:57:32.666Z,99877.09
2022-12-23T11:00:01.372Z,99881.56
2022-12-23T11:02:35.656Z,99882.72
2022-12-23T11:05:03.230Z,99878.06
2022-12-23T11:07:47.160Z,99875.56
2022-12-23T11:10:17.525Z,99882.88
2022-12-23T11:12:46.002Z,99888.88
2022-12-23T11:15:28.099Z,99890.41
2022-12-23T11:17:59.765Z,99879.41
2022-12-23T11:20:27.307Z,99889.56
2022-12-23T11:22:55.360Z,99883.91
2022-12-23T11:25:27.763Z,99886.22
2022-12-23T11:27:55.720Z,99884.38
2022-12-23T11:30:23.328Z,99889.72
2022-12-23T11:32:52.064Z,99889.88
2022-12-23T11:35:25.215Z,99893.38
2022-12-23T11:37:52.718Z,99895.19
2022-12-23T11:40:25.301Z,99904.03
2022-12-23T11:42:55.426Z,99906.72
2022-12-23T11:45:24.586Z,99907.03
2022-12-23T11:47:53.513Z,99908.50
2022-12-23T11:50:29.168Z,99908.50
2022-12-23T11:52:57.591Z,99908.69
2022-12-23T11:55:25.939Z,99914.84
2022-12-23T11:57:53.484Z,99922.84
2022-12-23T12:00:22.100Z,99929.66
2022-12-23T12:02:49.898Z,99930.00
2022-12-23T12:05:23.526Z,99939.81
2022-12-23T12:07:51.176Z,99943.13
2022-12-23T12:10:20.183Z,99939.81
2022-12-23T12:12:52.787Z,99946.81
2022-12-23T12:15:26.625Z,99957.09
2022-12-23T12:17:54.096Z,99947.28
2022-12-23T12:20:27.614Z,99953.28
2022-12-23T12:22:56.600Z,99959.78
2022-12-23T12:25:39.684Z,99956.09
2022-12-23T12:28:10.930Z,99957.63
2022-12-23T12:30:40.476Z,99964.63
2022-12-23T12:33:12.268Z,99956.09
2022-12-23T12:35:43.384Z,99947.44
2022-12-23T12:38:14.503Z,99948.09
2022-12-23T12:40:43.042Z,99943.63
2022-12-23T12:43:16.964Z,99937.28
2022-12-23T12:45:48.667Z,99933.97
2022-12-23T12:48:30.491Z,99937.44
2022-12-23T12:51:02.282Z,99934.47
2022-12-23T12:53:29.804Z,99930.47
2022-12-23T12:55:58.306Z,99933.97
2022-12-23T12:58:25.743Z,99934.78
2022-12-23T13:00:59.506Z,99929.47
2022-12-23T13:03:39.768Z,99927.66
2022-12-23T13:06:12.647Z,99917.97
2022-12-23T13:08:47.949Z,99925.00
2022-12-23T13:11:16.978Z,99932.97
2022-12-23T13:13:47.821Z,99935.66
2022-12-23T13:16:21.688Z,99936.47
2022-12-23T13:18:53.319Z,99932.13
2022-12-23T13:21:24.077Z,99936.47
2022-12-23T13:23:53.442Z,99941.50
2022-12-23T13:26:29.059Z,99934.63
2022-12-23T13:29:01.885Z,99928.31
2022-12-23T13:31:34.937Z,99932.47
2022-12-23T13:34:05.591Z,99927.34
2022-12-23T13:36:40.364Z,99919.16
2022-12-23T13:39:22.962Z,99919.34
2022-12-23T13:41:51.084Z,99912.66
2022-12-23T13:44:18.762Z,99913.81
2022-12-23T13:46:51.524Z,99905.34
2022-12-23T13:49:25.208Z,99902.69
2022-12-23T13:51:55.986Z,99916.84
2022-12-23T13:54:28.541Z,99916.84
2022-12-23T13:57:00.942Z,99900.16
2022-12-23T13:59:38.411Z,99900.16
2022-12-23T14:02:40.747Z,99907.03
2022-12-23T14:05:29.718Z,99905.50
2022-12-23T14:07:58.655Z,99907.34
2022-12-23T14:10:26.081Z,99914.34
2022-12-23T14:12:58.459Z,99906.50
2022-12-23T14:15:33.663Z,99903.69
2022-12-23T14:18:09.575Z,99905.06
2022-12-23T14:20:43.099Z,99908.78
2022-12-23T14:23:21.347Z,99916.41
2022-12-23T14:25:56.345Z,99913.25
2022-12-23T14:28:31.205Z,99917.25
2022-12-23T14:30:58.725Z,99919.69
2022-12-23T14:33:26.899Z,99923.78
2022-12-23T14:35:58.063Z,99927.69
2022-12-23T14:38:28.644Z,99919.31
2022-12-23T14:40:59.432Z,99918.63
2022-12-23T14:43:43.128Z,99922.16
2022-12-23T14:46:30.969Z,99930.78
2022-12-23T14:52:45.082Z,99922.97
2022-12-23T14:55:50.227Z,99925.94
2022-12-23T14:59:00.985Z,99928.53
2022-12-23T15:01:32.252Z,99935.22
2022-12-23T15:04:01.796Z,99935.59
2022-12-23T15:06:33.367Z,99936.28
2022-12-23T15:09:00.901Z,99940.31
2022-12-23T15:11:30.505Z,99933.69
2022-12-23T15:13:59.315Z,99938.03
2022-12-23T15:16:31.549Z,99937.75
2022-12-23T15:18:59.992Z,99930.59
2022-12-23T15:21:32.015Z,99929.44
2022-12-23T15:23:59.489Z,99929.00
2022-12-23T15:26:28.454Z,99927.84
2022-12-23T15:28:57.378Z,99926.72
2022-12-23T15:31:27.582Z,99932.56
2022-12-23T15:34:05.239Z,99927.25
2022-12-23T15:36:36.912Z,99921.63
2022-12-23T15:39:08.694Z,99920.69
2022-12-23T15:41:42.537Z,99921.06
2022-12-23T15:44:13.346Z,99910.28
2022-12-23T15:46:41.044Z,99908.63
2022-12-23T15:49:10.441Z,99899.78
2022-12-23T15:52:06.324Z,99906.94
2022-12-23T15:54:30.622Z,99910.28
2022-12-23T15:56:59.242Z,99906.63
2022-12-23T15:59:28.857Z,99912.94
2022-12-23T16:01:56.446Z,99915.59
2022-12-23T16:04:26.367Z,99913.44
2022-12-23T16:06:54.125Z,99920.47
2022-12-23T16:09:32.878Z,99930.09
2022-12-23T16:12:01.347Z,99926.44
2022-12-23T16:14:40.849Z,99920.31
2022-12-23T16:17:16.201Z,99927.28
2022-12-23T16:19:45.222Z,99920.97
2022-12-23T16:22:18.244Z,99913.81
2022-12-23T16:24:46.833Z,99923.19
2022-12-23T16:27:15.396Z,99929.47
2022-12-23T16:29:44.119Z,99929.03
2022-12-23T16:32:16.307Z,99930.00
2022-12-23T16:34:43.902Z,99932.19
2022-12-23T16:37:11.383Z,99934.38
2022-12-23T16:39:38.955Z,99925.25
2022-12-23T16:42:06.394Z,99920.75
2022-12-23T16:44:33.797Z,99920.91
2022-12-23T16:47:06.146Z,99923.13
2022-12-23T16:49:34.275Z,99917.13
2022-12-23T16:52:01.924Z,99910.97
2022-12-23T16:54:29.362Z,99917.78
2022-12-23T16:56:56.799Z,99906.31
2022-12-23T16:59:25.846Z,99899.16
2022-12-23T17:01:56.536Z,99902.63
2022-12-23T17:04:28.338Z,99899.00
2022-12-23T17:06:55.791Z,99895.16
2022-12-23T17:09:23.287Z,99889.69
2022-12-23T17:11:52.025Z,99887.03
2022-12-23T17:14:21.382Z,99890.03
2022-12-23T17:16:48.937Z,99885.91
2022-12-23T17:19:20.498Z,99890.22
2022-12-23T17:21:53.837Z,99895.53
2022-12-23T17:24:23.031Z,99885.59
2022-12-23T17:26:50.766Z,99871.63
2022-12-23T17:29:18.497Z,99874.78
2022-12-23T17:31:46.269Z,99868.75
2022-12-23T17:34:15.131Z,99866.78
2022-12-23T17:36:49.181Z,99865.09
2022-12-23T17:39:19.077Z,99861.47
2022-12-23T17:41:46.725Z,99858.09
2022-12-23T17:44:14.789Z,99853.78
2022-12-23T17:46:42.373Z,99854.78
2022-12-23T17:49:09.967Z,99844.44
2022-12-23T17:51:37.470Z,99843.13
2022-12-23T17:54:06.465Z,99835.47
2022-12-23T17:56:35.591Z,99832.81
2022-12-23T17:59:03.017Z,99832.81
2022-12-23T18:01:31.548Z,99833.47
2022-12-23T18:03:59.760Z,99831.81
2022-12-23T18:06:28.047Z,99832.66
2022-12-23T18:08:56.848Z,99828.97
2022-12-23T18:11:30.738Z,99821.00
2022-12-23T18:13:59.561Z,99822.66
2022-12-23T18:16:27.125Z,99819.19
2022-12-23T18:18:54.794Z,99820.16
2022-12-23T18:21:23.674Z,99815.34
2022-12-23T18:23:51.204Z,99813.00
2022-12-23T18:26:18.756Z,99812.19
2022-12-23T18:28:46.297Z,99810.53
2022-12-23T18:31:16.799Z,99805.22
2022-12-23T18:33:45.073Z,99810.72
2022-12-23T18:36:23.131Z,99813.91
2022-12-23T18:38:53.670Z,99816.19
2022-12-23T18:41:21.499Z,99813.69
2022-12-23T18:43:48.984Z,99825.16
2022-12-23T18:46:17.834Z,99823.19
2022-12-23T18:48:45.332Z,99820.50
2022-12-23T18:51:14.537Z,99823.50
2022-12-23T18:53:43.445Z,99822.50
2022-12-23T18:56:13.243Z,99822.50
2022-12-23T18:58:40.802Z,99834.00
2022-12-23T19:01:12.008Z,99821.53
2022-12-23T19:03:40.902Z,99819.03
2022-12-23T19:06:08.986Z,99819.69
2022-12-23T19:08:36.654Z,99814.38
2022-12-23T19:11:10.655Z,99816.88
2022-12-23T19:13:38.191Z,99817.03
2022-12-23T19:16:06.108Z,99812.53
2022-12-23T19:18:33.635Z,99810.88
2022-12-23T19:21:05.417Z,99813.97
2022-12-23T19:23:33.105Z,99820.97
2022-12-23T19:26:00.634Z,99812.28
2022-12-23T19:28:28.155Z,99818.31
2022-12-23T19:30:55.712Z,99808.97
2022-12-23T19:33:23.300Z,99812.16
2022-12-23T19:35:50.785Z,99796.81
2022-12-23T19:38:19.648Z,99802.84
2022-12-23T19:40:47.202Z,99803.69
2022-12-23T19:43:14.662Z,99802.84
2022-12-23T19:45:42.161Z,99800.66
2022-12-23T19:48:09.878Z,99803.00
2022-12-23T19:50:37.367Z,99801.66
2022-12-23T19:53:04.903Z,99795.34
2022-12-23T19:55:33.778Z,99795.66
2022-12-23T19:58:01.254Z,99797.84
2022-12-23T20:00:28.724Z,99793.34
2022-12-23T20:02:58.963Z,99789.69
2022-12-23T20:05:26.893Z,99785.84
2022-12-23T20:07:54.328Z,99781.69
2022-12-23T20:10:21.808Z,99783.03
2022-12-23T20:12:50.490Z,99771.56
2022-12-23T20:15:18.006Z,99767.38
2022-12-23T20:17:45.485Z,99771.22
2022-12-23T20:20:13.144Z,99775.69
2022-12-23T20:22:40.564Z,99777.03
2022-12-23T20:25:08.590Z,99766.72
2022-12-23T20:27:37.882Z,99772.03
2022-12-23T20:30:08.074Z,99757.72
2022-12-23T20:32:35.553Z,99749.03
2022-12-23T20:35:02.979Z,99747.91
2022-12-23T20:37:30.412Z,99737.75
2022-12-23T20:39:58.044Z,99738.72
2022-12-23T20:42:27.025Z,99740.06
2022-12-23T20:44:54.437Z,99739.25
2022-12-23T20:47:23.150Z,99743.06
2022-12-23T20:49:50.621Z,99744.72
2022-12-23T20:52:18.031Z,99734.91
2022-12-23T20:54:45.453Z,99740.38
2022-12-23T20:57:12.974Z,99731.41
2022-12-23T20:59:40.404Z,99724.25
2022-12-23T21:02:07.872Z,99724.41
2022-12-23T21:04:36.603Z,99736.25
2022-12-23T21:07:04.047Z,99735.06
2022-12-23T21:09:31.579Z,99737.56
2022-12-23T21:11:59.051Z,99739.25
2022-12-23T21:14:26.546Z,99745.41
2022-12-23T21:16:54.511Z,99742.06
2022-12-23T21:19:22.808Z,99738.38
2022-12-23T21:21:51.643Z,99740.38
2022-12-23T21:24:19.192Z,99737.72
2022-12-23T21:26:53.524Z,99743.22
2022-12-23T21:29:23.356Z,99740.38
2022-12-23T21:31:50.857Z,99739.41
2022-12-23T21:34:18.337Z,99745.06
2022-12-23T21:36:45.784Z,99742.44
2022-12-23T21:39:15.568Z,99743.25
2022-12-23T21:41:43.134Z,99744.22
2022-12-23T21:44:11.041Z,99734.09
2022-12-23T21:46:38.574Z,99737.59
2022-12-23T21:49:06.001Z,99739.91
2022-12-23T21:51:40.124Z,99736.06
2022-12-23T21:54:08.662Z,99735.56
2022-12-23T21:56:37.355Z,99735.72
2022-12-23T21:59:06.341Z,99733.25
2022-12-23T22:01:33.862Z,99729.75
2022-12-23T22:04:01.440Z,99730.75
2022-12-23T22:06:29.678Z,99720.25
2022-12-23T22:08:57.350Z,99713.25
2022-12-23T22:11:25.630Z,99711.41
2022-12-23T22:13:54.306Z,99709.78
2022-12-23T22:16:22.680Z,99712.09
2022-12-23T22:18:50.322Z,99712.09
2022-12-23T22:21:18.847Z,99713.28
2022-12-23T22:23:47.177Z,99708.44
2022-12-23T22:26:18.871Z,99708.78
2022-12-23T22:28:51.445Z,99709.59
2022-12-23T22:31:21.838Z,99713.28
2022-12-23T22:33:49.313Z,99711.44
2022-12-23T22:36:16.818Z,99708.44
2022-12-23T22:38:44.292Z,99712.75
2022-12-23T22:41:11.801Z,99703.13
2022-12-23T22:43:39.257Z,99703.28
2022-12-23T22:46:07.114Z,99703.13
2022-12-23T22:48:36.193Z,99703.94
2022-12-23T22:51:03.938Z,99698.28
2022-12-23T22:53:31.340Z,99701.13
2022-12-23T22:55:59.397Z,99693.13
2022-12-23T22:58:26.883Z,99697.97
2022-12-23T23:00:54.303Z,99699.78
2022-12-23T23:03:21.703Z,99696.28
2022-12-23T23:05:58.399Z,99690.47
2022-12-23T23:08:25.941Z,99688.44
2022-12-23T23:10:53.360Z,99688.78
2022-12-23T23:13:20.838Z,99690.78
2022-12-23T23:15:48.362Z,99693.28
2022-12-23T23:18:15.780Z,99688.78
2022-12-23T23:20:43.207Z,99690.13
2022-12-23T23:23:11.922Z,99690.94
2022-12-23T23:25:39.336Z,99695.47
2022-12-23T23:28:06.766Z,99692.13
2022-12-23T23:30:34.170Z,99693.13
2022-12-23T23:33:01.587Z,99693.44
2022-12-23T23:35:29.029Z,99695.28
2022-12-23T23:37:56.959Z,99694.81
2022-12-23T23:40:25.644Z,99696.59
2022-12-23T23:42:53.090Z,99694.81
2022-12-23T23:45:20.558Z,99700.78
2022-12-23T23:47:47.975Z,99705.28
2022-12-23T23:50:15.392Z,99709.78
2022-12-23T23:52:42.819Z,99702.28
2022-12-23T23:55:10.555Z,99708.78
2022-12-23T23:57:39.262Z,99701.97
